This is the latest recevied weather packets stored in our database for station/object AA4XD. If no packets are shown the sender has not sent any weather packets the latest 10 day(s).
| Time | Temp. | Humidity | Pressure | Rain* | Wind** | Luminosity | Snow |
|---|---|---|---|---|---|---|---|
| 1777916259 | 27.78° C | 32% | 1015.9 hPa | 0 mm | - | 1021 W/m² | - |
| 1777915956 | 27.78° C | 33% | 1015.9 hPa | 0 mm | - | 1022 W/m² | - |
| 1777915653 | 28.33° C | 34% | 1015.9 hPa | 0 mm | - | 1022 W/m² | - |
| 1777915046 | 27.22° C | 32% | 1016 hPa | 0 mm | - | 1020 W/m² | - |
| 1777914440 | 26.67° C | 33% | 1016.2 hPa | 0 mm | - | 1006 W/m² | - |
| 1777914137 | 27.22° C | 35% | 1016.1 hPa | 0 mm | - | 1002 W/m² | - |
| 1777913833 | 27.22° C | 35% | 1016 hPa | 0 mm | - | 999 W/m² | - |
| 1777913529 | 26.67° C | 34% | 1016.4 hPa | 0 mm | - | 990 W/m² | - |
| 1777913226 | 27.22° C | 34% | 1016.4 hPa | 0 mm | - | 997 W/m² | - |
| 1777912923 | 26.67° C | 36% | 1016.5 hPa | 0 mm | - | 997 W/m² | - |
| 1777912619 | 26.67° C | 35% | 1016.6 hPa | 0 mm | - | 988 W/m² | - |
| 1777912315 | 26.67° C | 35% | 1016.6 hPa | 0 mm | - | 984 W/m² | - |
| 1777911707 | 26.67° C | 35% | 1016.7 hPa | 0 mm | - | 974 W/m² | - |
| 1777911404 | 26.67° C | 37% | 1016.9 hPa | 0 mm | - | 968 W/m² | - |
| 1777910799 | 26.11° C | 36% | 1017 hPa | 0 mm | - | 949 W/m² | - |
| 1777910192 | 26.67° C | 35% | 1017.2 hPa | 0 mm | - | 929 W/m² | - |
| 1777909283 | 26.11° C | 37% | 1017.3 hPa | 0 mm | - | 897 W/m² | - |
| 1777908680 | 26.11° C | 37% | 1017.1 hPa | 0 mm | - | 876 W/m² | - |
| 1777905346 | 26.11° C | 44% | 1017.2 hPa | 0 mm | - | 674 W/m² | - |
| 1777905044 | 25.56° C | 42% | 1017.4 hPa | 0 mm | - | 660 W/m² | - |
| 1777901711 | 23.33° C | 59% | 1016.9 hPa | 0 mm | - | 455 W/m² | - |
| 1777901408 | 23.33° C | 59% | 1017.1 hPa | 0 mm | - | 427 W/m² | - |
| 1777901105 | 23.89° C | 59% | 1017.2 hPa | 0 mm | - | 398 W/m² | - |
| 1777900803 | 22.78° C | 61% | 1017.2 hPa | 0 mm | - | 358 W/m² | - |
| 1777900500 | 22.78° C | 60% | 1017.1 hPa | 0 mm | - | 331 W/m² | - |
* Rain latest hour (hover to see other rain measurements)
** Current wind speed in m/s (hover to see current wind gust speed)